Amber, Oklahoma
Current Conditions -  °F | °C
As of 8:55 PM on Friday 21 Nov 2014 (Local Time) from KCHK Reporting Station
Scattered Clouds Scattered Clouds  
Wind Chill: 55°   Ceiling: Unl
Heat Index: 55°   Visibility: 10mi
Dew Point: 54°   Wind: 3mph
Humidity: 94%   Direction: 160°SSE
Pressure: 30.04"   Gusts: NA
Location:  35.16°N, 97.88°W
Report Text: KCHK 220255Z AUTO 16003KT 10SM SCT014 13/12 A3004 RMK AO2
Loading
Personal Weather Stations






























Interactive Weather Map New forecast layout! Learn more

10-Day Weather Forecast

Advertisements
Track Severe Weather on mobile